Time;durP1;ratioP1;P1;durP2;ratioP2;P2;SDS_P1;SDS_P2;PMS_P1;PMS_P2;Temp;Humidity;BMP_temperature;BMP_pressure;BME280_temperature;BME280_humidity;BME280_pressure;Samples;Min_cycle;Max_cycle;Signal;HPM_P1;HPM_P2
2021/12/04 00:00:37;;;;;;;;;;;;;;;;;;5017007;28;19925;-82
2021/12/04 00:03:02;;;;;;;;;;;;;;;;;;5034664;28;19955;-82
2021/12/04 00:05:27;;;;;;;;;;;;;;;;;;5017309;28;19920;-82
2021/12/04 00:07:53;;;;;;;;;;;;;;;;;;5034418;28;19978;-82
2021/12/04 00:10:21;;;;;;;;;;;;;;;;;;5034388;28;19975;-81
2021/12/04 00:12:46;;;;;;;;;;;;;;;;;;5034265;28;19964;-82
2021/12/04 00:15:12;;;;;;;;;;;;;;;;;;5016753;28;19921;-81
2021/12/04 00:17:37;;;;;;;;;;;;;;;;;;5016951;28;20063;-82
2021/12/04 00:20:03;;;;;;;;;;;;;;;;;;5034019;28;20474;-81
2021/12/04 00:22:28;;;;;;;;;;;;;;;;;;5016468;28;19934;-82
2021/12/04 00:24:53;;;;;;;;;;;;;;;;;;5017017;28;19943;-81
2021/12/04 00:27:18;;;;;;;;;;;;;;;;;;5034035;28;19928;-82
2021/12/04 00:29:44;;;;;;;;;;;;;;;;;;5034188;28;20311;-82
2021/12/04 00:32:13;;;;;;;;;;;;;;;;;;5016666;28;19917;-82
2021/12/04 00:34:42;;;;;;;;;;;;;;;;;;5033791;28;19993;-82
2021/12/04 00:50:40;;;;;;;;;;;;;;;;;;5038100;28;19932;-82
2021/12/04 00:53:06;;;;;;;;;;;;;;;;;;5020775;28;19921;-82
2021/12/04 00:55:33;;;;;;;;;;;;;;;;;;5020443;28;19960;-81
2021/12/04 00:57:58;;;;;;;;;;;;;;;;;;5038266;28;19979;-82
2021/12/04 01:00:24;;;;;;;;;;;;;;;;;;5038534;28;19929;-82
2021/12/04 01:02:49;;;;;;;;;;;;;;;;;;5037207;28;20289;-82
2021/12/04 01:05:14;;;;;;;;;;;;;;;;;;5004218;28;19939;-82
2021/12/04 01:07:39;;;;;;;;;;;;;;;;;;5037928;28;19919;-83
2021/12/04 01:10:06;;;;;;;;;;;;;;;;;;5037599;28;20008;-82
2021/12/04 01:12:34;;;;;;;;;;;;;;;;;;5021901;28;19924;-82
2021/12/04 01:15:02;;;;;;;;;;;;;;;;;;5004664;28;19921;-84
2021/12/04 01:17:27;;;;;;;;;;;;;;;;;;5037352;28;19929;-84
2021/12/04 01:19:57;;;;;;;;;;;;;;;;;;5037496;28;20254;-84
2021/12/04 01:22:23;;;;;;;;;;;;;;;;;;5037517;28;19929;-85
2021/12/04 01:24:50;;;;;;;;;;;;;;;;;;5037561;28;20308;-84
2021/12/04 01:27:19;;;;;;;;;;;;;;;;;;5010204;28;19963;-84
2021/12/04 01:29:49;;;;;;;;;;;;;;;;;;5014697;28;19921;-83
2021/12/04 01:32:14;;;;;;;;;;;;;;;;;;5003475;28;19921;-84
2021/12/04 01:34:40;;;;;;;;;;;;;;;;;;5036982;28;20066;-83
2021/12/04 01:37:05;;;;;;;;;;;;;;;;;;5037478;28;19955;-84
2021/12/04 01:39:33;;;;;;;;;;;;;;;;;;5037173;28;19932;-83
2021/12/04 01:41:58;;;;;;;;;;;;;;;;;;5036929;28;20290;-84
2021/12/04 01:44:26;;;;;;;;;;;;;;;;;;5036535;28;19928;-83
2021/12/04 01:46:55;;;;;;;;;;;;;;;;;;5019264;28;19921;-84
2021/12/04 01:49:29;;;;;;;;;;;;;;;;;;5034339;28;19932;-84
2021/12/04 01:51:55;;;;;;;;;;;;;;;;;;5036379;28;20017;-84
2021/12/04 01:54:20;;;;;;;;;;;;;;;;;;5036494;28;20036;-84
2021/12/04 01:56:49;;;;;;;;;;;;;;;;;;5035395;28;20497;-83
2021/12/04 01:59:14;;;;;;;;;;;;;;;;;;5036375;28;19921;-83
2021/12/04 02:01:39;;;;;;;;;;;;;;;;;;5018475;28;20435;-84
2021/12/04 02:04:05;;;;;;;;;;;;;;;;;;5018640;28;19935;-85
2021/12/04 02:06:38;;;;;;;;;;;;;;;;;;5018898;28;19921;-85
2021/12/04 02:09:03;;;;;;;;;;;;;;;;;;5036325;28;19921;-85
2021/12/04 02:11:31;;;;;;;;;;;;;;;;;;5035343;28;20204;-82
2021/12/04 02:14:00;;;;;;;;;;;;;;;;;;5036332;28;19979;-83
2021/12/04 02:16:25;;;;;;;;;;;;;;;;;;5036103;28;19953;-84
2021/12/04 02:18:53;;;;;;;;;;;;;;;;;;5018092;28;20023;-84
2021/12/04 02:21:21;;;;;;;;;;;;;;;;;;5016095;28;19932;-84
2021/12/04 02:23:48;;;;;;;;;;;;;;;;;;5035160;28;20250;-83
2021/12/04 02:26:16;;;;;;;;;;;;;;;;;;5036055;28;19917;-83
2021/12/04 02:28:42;;;;;;;;;;;;;;;;;;5036212;28;19960;-84
2021/12/04 02:31:07;;;;;;;;;;;;;;;;;;5036327;28;20000;-91
2021/12/04 02:33:32;;;;;;;;;;;;;;;;;;5037629;28;19949;-93
2021/12/04 02:35:58;;;;;;;;;;;;;;;;;;5019215;28;19921;-90
2021/12/04 02:38:35;;;;;;;;;;;;;;;;;;5037024;28;19932;-91
2021/12/04 02:41:01;;;;;;;;;;;;;;;;;;5018576;28;20386;-92
2021/12/04 02:43:27;;;;;;;;;;;;;;;;;;5018843;28;19921;-91
2021/12/04 02:45:52;;;;;;;;;;;;;;;;;;5016596;28;19921;-91
2021/12/04 02:48:20;;;;;;;;;;;;;;;;;;5029985;28;20379;-91
2021/12/04 02:50:47;;;;;;;;;;;;;;;;;;5038850;28;20251;-92
2021/12/04 02:53:13;;;;;;;;;;;;;;;;;;5036186;28;20008;-88
2021/12/04 02:55:41;;;;;;;;;;;;;;;;;;5018294;28;20055;-90
2021/12/04 02:58:06;;;;;;;;;;;;;;;;;;4998464;28;20351;-91
2021/12/04 03:00:33;;;;;;;;;;;;;;;;;;5018256;28;19940;-89
2021/12/04 03:03:02;;;;;;;;;;;;;;;;;;5015118;28;19929;-92
2021/12/04 03:05:28;;;;;;;;;;;;;;;;;;5034653;28;19933;-89
2021/12/04 03:07:54;;;;;;;;;;;;;;;;;;5016941;28;19921;-91
2021/12/04 03:10:19;;;;;;;;;;;;;;;;;;5016451;28;19921;-89
2021/12/04 03:12:45;;;;;;;;;;;;;;;;;;5034644;28;20036;-90
2021/12/04 03:15:15;;;;;;;;;;;;;;;;;;5035433;28;20353;-90
2021/12/04 03:17:43;;;;;;;;;;;;;;;;;;5035419;28;19955;-90
2021/12/04 03:20:10;;;;;;;;;;;;;;;;;;5035365;28;20031;-89
2021/12/04 03:22:35;;;;;;;;;;;;;;;;;;5034831;28;20263;-90
2021/12/04 03:25:01;;;;;;;;;;;;;;;;;;5035204;28;19980;-90
2021/12/04 03:27:28;;;;;;;;;;;;;;;;;;5034830;28;19925;-89
2021/12/04 03:30:04;;;;;;;;;;;;;;;;;;5035034;28;19975;-90
2021/12/04 03:42:53;;;;;;;;;;;;;;;;;;5034991;28;19921;-90
2021/12/04 03:45:18;;;;;;;;;;;;;;;;;;5017685;28;19932;-88
2021/12/04 03:47:47;;;;;;;;;;;;;;;;;;4997772;28;19917;-89
2021/12/04 03:50:12;;;;;;;;;;;;;;;;;;5030718;28;19928;-90
2021/12/04 03:52:38;;;;;;;;;;;;;;;;;;5034254;28;19917;-91
2021/12/04 03:55:04;;;;;;;;;;;;;;;;;;5035132;28;19933;-90
2021/12/04 03:57:30;;;;;;;;;;;;;;;;;;5017378;28;19917;-90
2021/12/04 03:59:55;;;;;;;;;;;;;;;;;;5017401;28;20365;-90
2021/12/04 04:02:20;;;;;;;;;;;;;;;;;;5017188;28;19917;-90
2021/12/04 04:04:48;;;;;;;;;;;;;;;;;;5017063;28;19952;-90
2021/12/04 04:07:13;;;;;;;;;;;;;;;;;;5034196;28;19921;-90
2021/12/04 04:09:38;;;;;;;;;;;;;;;;;;5034350;28;19921;-90
2021/12/04 04:12:04;;;;;;;;;;;;;;;;;;5016896;28;20007;-90
2021/12/04 04:14:29;;;;;;;;;;;;;;;;;;5017186;28;19917;-89
2021/12/04 04:16:55;;;;;;;;;;;;;;;;;;5034143;28;19921;-90
2021/12/04 04:19:20;;;;;;;;;;;;;;;;;;5034401;28;19921;-89
2021/12/04 04:21:46;;;;;;;;;;;;;;;;;;5016312;28;19924;-88
2021/12/04 04:24:12;;;;;;;;;;;;;;;;;;5034021;28;19932;-89
2021/12/04 04:26:37;;;;;;;;;;;;;;;;;;5016180;28;19932;-91
2021/12/04 04:29:03;;;;;;;;;;;;;;;;;;5016927;28;19929;-89
2021/12/04 04:31:29;;;;;;;;;;;;;;;;;;4997265;28;19921;-90
2021/12/04 04:34:03;;;;;;;;;;;;;;;;;;5034545;28;20345;-90
2021/12/04 05:11:12;;;;;;;;;;;;;;;;;;5019137;28;20312;-92
2021/12/04 05:13:40;;;;;;;;;;;;;;;;;;5038498;28;20338;-93
2021/12/04 05:16:16;;;;;;;;;;;;;;;;;;5018433;28;19951;-92
2021/12/04 05:19:11;;;;;;;;;;;;;;;;;;5019869;28;19921;-91
2021/12/04 05:21:36;;;;;;;;;;;;;;;;;;5035387;28;19921;-92
2021/12/04 05:24:02;;;;;;;;;;;;;;;;;;5017046;28;19932;-91
2021/12/04 05:26:35;;;;;;;;;;;;;;;;;;5017555;28;19928;-91
2021/12/04 05:29:00;;;;;;;;;;;;;;;;;;5018256;28;19921;-92
2021/12/04 05:31:26;;;;;;;;;;;;;;;;;;5035120;28;19927;-92
2021/12/04 05:33:52;;;;;;;;;;;;;;;;;;5019148;28;19921;-91
2021/12/04 05:36:17;;;;;;;;;;;;;;;;;;5020081;28;19917;-91
2021/12/04 05:38:43;;;;;;;;;;;;;;;;;;5021749;28;19921;-90
2021/12/04 05:41:08;;;;;;;;;;;;;;;;;;5038223;28;19920;-91
2021/12/04 05:43:34;;;;;;;;;;;;;;;;;;5038498;28;19975;-91
2021/12/04 05:46:09;;;;;;;;;;;;;;;;;;5020947;28;19921;-91
2021/12/04 05:51:30;;;;;;;;;;;;;;;;;;5037861;28;20024;-89
2021/12/04 05:54:02;;;;;;;;;;;;;;;;;;5037875;28;19951;-90
2021/12/04 05:56:29;;;;;;;;;;;;;;;;;;5025691;28;19921;-91
2021/12/04 05:58:57;;;;;;;;;;;;;;;;;;5020632;28;19921;-88
2021/12/04 06:01:25;;;;;;;;;;;;;;;;;;5038200;28;19932;-90
2021/12/04 06:03:52;;;;;;;;;;;;;;;;;;5020067;28;19921;-90
2021/12/04 06:06:20;;;;;;;;;;;;;;;;;;5038166;28;19975;-90
2021/12/04 06:08:45;;;;;;;;;;;;;;;;;;5020501;28;19933;-91
2021/12/04 06:11:13;;;;;;;;;;;;;;;;;;5020399;28;19929;-91
2021/12/04 06:13:38;;;;;;;;;;;;;;;;;;5037569;28;19921;-91
2021/12/04 06:16:06;;;;;;;;;;;;;;;;;;5019868;28;19928;-89
2021/12/04 06:18:32;;;;;;;;;;;;;;;;;;4987674;28;19933;-90
2021/12/04 06:23:44;;;;;;;;;;;;;;;;;;5018669;28;20406;-90
2021/12/04 06:26:12;;;;;;;;;;;;;;;;;;5001581;28;20274;-89
2021/12/04 06:28:40;;;;;;;;;;;;;;;;;;5037569;28;20035;-88
2021/12/04 06:31:11;;;;;;;;;;;;;;;;;;5003600;28;19921;-89
2021/12/04 06:33:37;;;;;;;;;;;;;;;;;;5023654;28;19929;-90
2021/12/04 06:36:03;;;;;;;;;;;;;;;;;;5022072;28;20379;-89
2021/12/04 06:38:28;;;;;;;;;;;;;;;;;;5020016;28;20012;-89
2021/12/04 06:40:54;;;;;;;;;;;;;;;;;;5036489;28;20509;-90
2021/12/04 06:43:22;;;;;;;;;;;;;;;;;;5036733;28;20075;-89
2021/12/04 06:45:58;;;;;;;;;;;;;;;;;;5035774;28;20003;-90
2021/12/04 06:48:26;;;;;;;;;;;;;;;;;;5020198;28;19932;-90
2021/12/04 06:50:58;;;;;;;;;;;;;;;;;;5035868;28;19932;-90
2021/12/04 06:53:31;;;;;;;;;;;;;;;;;;5036455;28;19921;-90
2021/12/04 06:55:59;;;;;;;;;;;;;;;;;;5019385;28;19925;-91
2021/12/04 06:58:25;;;;;;;;;;;;;;;;;;5035972;28;20378;-90
2021/12/04 07:00:51;;;;;;;;;;;;;;;;;;5018156;28;19960;-90
2021/12/04 07:03:16;;;;;;;;;;;;;;;;;;5040073;28;19932;-92
2021/12/04 07:05:41;;;;;;;;;;;;;;;;;;5039194;28;20234;-91
2021/12/04 07:08:07;;;;;;;;;;;;;;;;;;5036048;28;19917;-90
2021/12/04 07:10:33;;;;;;;;;;;;;;;;;;5035566;28;19925;-91
2021/12/04 07:12:58;;;;;;;;;;;;;;;;;;5018245;28;19917;-91
2021/12/04 07:15:27;;;;;;;;;;;;;;;;;;5017875;28;19932;-89
2021/12/04 07:17:52;;;;;;;;;;;;;;;;;;5017404;28;20239;-90
2021/12/04 07:20:19;;;;;;;;;;;;;;;;;;5035271;28;19932;-91
2021/12/04 07:22:45;;;;;;;;;;;;;;;;;;5035611;28;20007;-91
2021/12/04 07:25:10;;;;;;;;;;;;;;;;;;5017823;28;19976;-91
2021/12/04 07:27:35;;;;;;;;;;;;;;;;;;5035426;28;19987;-90
2021/12/04 07:30:03;;;;;;;;;;;;;;;;;;5014446;28;20004;-91
2021/12/04 07:32:28;;;;;;;;;;;;;;;;;;5030933;28;19955;-94
2021/12/04 07:34:53;;;;;;;;;;;;;;;;;;5034732;28;19957;-92
2021/12/04 07:37:19;;;;;;;;;;;;;;;;;;5017451;28;20338;-92
2021/12/04 07:39:44;;;;;;;;;;;;;;;;;;5035204;28;19921;-92
2021/12/04 07:42:15;;;;;;;;;;;;;;;;;;5034571;28;19921;-93
2021/12/04 07:44:40;;;;;;;;;;;;;;;;;;5034547;28;19929;-92
2021/12/04 07:47:05;;;;;;;;;;;;;;;;;;5035067;28;19932;-91
2021/12/04 07:49:30;;;;;;;;;;;;;;;;;;5016707;28;19921;-92
2021/12/04 07:51:58;;;;;;;;;;;;;;;;;;5017308;28;19925;-91
2021/12/04 07:54:23;;;;;;;;;;;;;;;;;;5034513;28;20369;-92
2021/12/04 07:56:51;;;;;;;;;;;;;;;;;;5016763;28;20020;-91
2021/12/04 07:59:16;;;;;;;;;;;;;;;;;;5033717;28;19921;-92
2021/12/04 08:01:46;;;;;;;;;;;;;;;;;;5016737;28;19917;-93
2021/12/04 08:04:12;;;;;;;;;;;;;;;;;;5033520;28;19925;-90
2021/12/04 08:06:37;;;;;;;;;;;;;;;;;;5037235;28;20015;-90
2021/12/04 08:09:03;;;;;;;;;;;;;;;;;;5034669;28;19921;-90
2021/12/04 08:11:28;;;;;;;;;;;;;;;;;;5016686;28;20020;-90
2021/12/04 08:13:56;;;;;;;;;;;;;;;;;;5034343;28;19921;-89
2021/12/04 08:16:24;;;;;;;;;;;;;;;;;;5034503;28;19929;-89
2021/12/04 08:18:55;;;;;;;;;;;;;;;;;;5035514;28;19921;-88
2021/12/04 08:21:21;;;;;;;;;;;;;;;;;;5023186;28;19932;-90
2021/12/04 08:23:48;;;;;;;;;;;;;;;;;;5039805;28;19924;-89
2021/12/04 08:26:13;;;;;;;;;;;;;;;;;;5035902;28;19960;-89
2021/12/04 08:28:39;;;;;;;;;;;;;;;;;;5017033;28;19963;-89
2021/12/04 08:31:04;;;;;;;;;;;;;;;;;;5016538;28;20315;-90
2021/12/04 08:33:29;;;;;;;;;;;;;;;;;;5033904;28;19940;-88
2021/12/04 08:35:54;;;;;;;;;;;;;;;;;;5016284;28;19921;-89
2021/12/04 08:38:20;;;;;;;;;;;;;;;;;;5015692;28;19928;-88
2021/12/04 08:40:45;;;;;;;;;;;;;;;;;;5033923;28;20330;-88
2021/12/04 08:43:11;;;;;;;;;;;;;;;;;;5016340;28;19947;-88
2021/12/04 08:45:42;;;;;;;;;;;;;;;;;;5016646;28;19925;-90
2021/12/04 08:48:13;;;;;;;;;;;;;;;;;;5016186;28;19921;-88
2021/12/04 08:50:38;;;;;;;;;;;;;;;;;;5015297;28;20055;-90
2021/12/04 08:53:07;;;;;;;;;;;;;;;;;;5018924;28;20040;-89
2021/12/04 08:55:32;;;;;;;;;;;;;;;;;;5034257;28;20030;-90
2021/12/04 08:57:58;;;;;;;;;;;;;;;;;;5016402;28;19983;-90
2021/12/04 09:00:28;;;;;;;;;;;;;;;;;;5016797;28;20011;-89
2021/12/04 09:02:53;;;;;;;;;;;;;;;;;;5016052;28;19924;-89
2021/12/04 09:05:22;;;;;;;;;;;;;;;;;;5035607;28;19928;-89
2021/12/04 09:07:48;;;;;;;;;;;;;;;;;;5035534;28;20278;-90
2021/12/04 09:10:13;;;;;;;;;;;;;;;;;;5021263;28;19927;-87
2021/12/04 09:12:39;;;;;;;;;;;;;;;;;;5038561;28;19921;-88
2021/12/04 09:15:07;;;;;;;;;;;;;;;;;;5039178;28;19920;-89
2021/12/04 09:17:33;;;;;;;;;;;;;;;;;;5039050;28;19986;-89
2021/12/04 09:19:58;;;;;;;;;;;;;;;;;;5020389;28;19921;-89
2021/12/04 09:22:29;;;;;;;;;;;;;;;;;;5037637;28;19925;-88
2021/12/04 09:24:58;;;;;;;;;;;;;;;;;;5020800;28;19983;-87
2021/12/04 10:34:34;;;;;;;;;;;;;;;;;;5020754;28;19928;-81
2021/12/04 10:37:03;;;;;;;;;;;;;;;;;;5035741;28;20207;-83
2021/12/04 10:39:28;;;;;;;;;;;;;;;;;;5035569;28;19929;-85
2021/12/04 10:41:54;;;;;;;;;;;;;;;;;;5035326;28;19917;-82
2021/12/04 10:44:21;;;;;;;;;;;;;;;;;;5035546;28;19928;-82
2021/12/04 10:46:57;;;;;;;;;;;;;;;;;;5016634;28;20012;-82
2021/12/04 10:50:05;;;;;;;;;;;;;;;;;;5034116;28;19921;-82
2021/12/04 10:55:26;;;;;;;;;;;;;;;;;;5018834;28;19921;-83
2021/12/04 11:00:58;;;;;;;;;;;;;;;;;;5016086;28;19929;-82
2021/12/04 11:03:37;;;;;;;;;;;;;;;;;;5018631;28;19921;-80
2021/12/04 11:28:19;;;;;;;;;;;;;;;;;;5034522;28;19921;-80
2021/12/04 11:41:42;;;;;;;;;;;;;;;;;;5040385;28;19921;-80
2021/12/04 11:46:56;;;;;;;;;;;;;;;;;;5028373;28;19972;-80
2021/12/04 11:49:20;;;;;;;;;;;;;;;;;;5032734;28;19921;-80
2021/12/04 11:51:58;;;;;;;;;;;;;;;;;;5016024;28;19921;-79
2021/12/04 11:54:24;;;;;;;;;;;;;;;;;;5016941;28;20360;-84
2021/12/04 11:57:01;;;;;;;;;;;;;;;;;;5016107;28;20004;-84
2021/12/04 11:59:27;;;;;;;;;;;;;;;;;;5033470;28;19948;-84
2021/12/04 12:02:00;;;;;;;;;;;;;;;;;;5033901;28;19932;-82
2021/12/04 12:04:54;;;;;;;;;;;;;;;;;;5033768;28;19997;-80
2021/12/04 12:07:27;;;;;;;;;;;;;;;;;;5019686;28;19925;-81
2021/12/04 12:10:08;;;;;;;;;;;;;;;;;;5033675;28;19928;-81
2021/12/04 12:12:36;;;;;;;;;;;;;;;;;;5033418;28;19987;-82
2021/12/04 12:15:05;;;;;;;;;;;;;;;;;;5032950;28;19986;-80
2021/12/04 12:17:37;;;;;;;;;;;;;;;;;;5033572;28;19964;-85
2021/12/04 12:20:08;;;;;;;;;;;;;;;;;;5005332;28;19995;-85
2021/12/04 12:22:47;;;;;;;;;;;;;;;;;;5022276;28;19936;-86
2021/12/04 12:33:43;;;;;;;;;;;;;;;;;;5012063;28;19936;-84
2021/12/04 12:36:13;;;;;;;;;;;;;;;;;;5014562;28;20370;-83
2021/12/04 12:38:45;;;;;;;;;;;;;;;;;;5014384;28;19921;-84
2021/12/04 12:41:22;;;;;;;;;;;;;;;;;;5031479;28;20016;-85
2021/12/04 12:43:56;;;;;;;;;;;;;;;;;;5033519;28;20023;-82
2021/12/04 12:46:31;;;;;;;;;;;;;;;;;;5030803;28;19929;-81
2021/12/04 12:48:56;;;;;;;;;;;;;;;;;;5031816;28;19987;-83
2021/12/04 12:51:29;;;;;;;;;;;;;;;;;;5013662;28;19921;-83
2021/12/04 12:53:57;;;;;;;;;;;;;;;;;;5014365;28;20386;-83
2021/12/04 12:57:00;;;;;;;;;;;;;;;;;;5032374;28;19921;-83
2021/12/04 12:59:39;;;;;;;;;;;;;;;;;;5032186;28;20376;-83
2021/12/04 13:14:08;;;;;;;;;;;;;;;;;;5013617;28;20373;-83
2021/12/04 13:16:49;;;;;;;;;;;;;;;;;;5013935;28;19921;-82
2021/12/04 13:19:19;;;;;;;;;;;;;;;;;;5030395;28;19955;-83
2021/12/04 13:21:53;;;;;;;;;;;;;;;;;;5030688;28;19921;-83
2021/12/04 13:24:22;;;;;;;;;;;;;;;;;;5031927;28;19932;-83
2021/12/04 13:51:45;;;;;;;;;;;;;;;;;;4912739;29;19982;-82
2021/12/04 14:07:03;;;;;;;;;;;;;;;;;;4898079;29;19938;-86
2021/12/04 14:28:24;;;;;;;;;;;;;;;;;;4873448;29;19935;-86
2021/12/04 14:37:05;;;;;;;;;;;;;;;;;;4867559;29;19935;-88
2021/12/04 14:39:35;;;;;;;;;;;;;;;;;;4867535;29;19955;-83
2021/12/04 14:42:11;;;;;;;;;;;;;;;;;;4854840;29;20030;-81
2021/12/04 14:44:36;;;;;;;;;;;;;;;;;;4842842;29;19943;-83
2021/12/04 14:47:04;;;;;;;;;;;;;;;;;;4908346;29;19923;-82
2021/12/04 14:49:29;;;;;;;;;;;;;;;;;;4935005;29;19958;-81
2021/12/04 14:51:54;;;;;;;;;;;;;;;;;;4919441;29;19992;-81
2021/12/04 14:54:26;;;;;;;;;;;;;;;;;;4918957;29;19991;-84
2021/12/04 14:57:10;;;;;;;;;;;;;;;;;;4917305;29;19935;-83
2021/12/04 15:03:25;;;;;;;;;;;;;;;;;;5000179;28;19922;-80
2021/12/04 15:09:11;;;;;;;;;;;;;;;;;;5019616;28;19984;-80
2021/12/04 15:18:20;;;;;;;;;;;;;;;;;;4927461;29;20021;-83
2021/12/04 15:33:56;;;;;;;;;;;;;;;;;;4863013;29;20010;-82
2021/12/04 15:39:31;;;;;;;;;;;;;;;;;;4859667;29;19935;-81
2021/12/04 15:57:37;;;;;;;;;;;;;;;;;;4861878;29;19924;-80
2021/12/04 16:25:00;;;;;;;;;;;;;;;;;;4859511;29;19943;-81
2021/12/04 16:37:04;;;;;;;;;;;;;;;;;;4850032;29;19982;-83
2021/12/04 16:39:32;;;;;;;;;;;;;;;;;;4920828;29;20372;-83
2021/12/04 16:41:58;;;;;;;;;;;;;;;;;;4917580;29;20374;-80
2021/12/04 16:44:23;;;;;;;;;;;;;;;;;;4938276;29;19970;-81
2021/12/04 16:46:49;;;;;;;;;;;;;;;;;;4922055;29;19994;-80
2021/12/04 16:49:17;;;;;;;;;;;;;;;;;;4934902;29;19930;-82
2021/12/04 17:00:21;;;;;;;;;;;;;;;;;;4934615;29;19934;-84
2021/12/04 17:02:58;;;;;;;;;;;;;;;;;;4923209;29;19927;-80
2021/12/04 17:05:25;;;;;;;;;;;;;;;;;;4936822;29;19934;-81
2021/12/04 17:07:51;;;;;;;;;;;;;;;;;;4936350;28;20026;-81
2021/12/04 17:10:16;;;;;;;;;;;;;;;;;;5034312;28;19932;-82
2021/12/04 17:12:41;;;;;;;;;;;;;;;;;;5016489;28;19960;-82
2021/12/04 17:15:07;;;;;;;;;;;;;;;;;;5033711;28;19931;-81
2021/12/04 17:17:36;;;;;;;;;;;;;;;;;;5016849;28;19986;-81
2021/12/04 17:20:02;;;;;;;;;;;;;;;;;;5031897;28;20429;-80
2021/12/04 17:22:29;;;;;;;;;;;;;;;;;;5032736;28;20055;-84
2021/12/04 17:24:56;;;;;;;;;;;;;;;;;;5033449;28;20215;-85
2021/12/04 17:27:22;;;;;;;;;;;;;;;;;;5032831;28;20377;-85
2021/12/04 17:29:51;;;;;;;;;;;;;;;;;;5036170;28;19920;-85
2021/12/04 17:35:58;;;;;;;;;;;;;;;;;;5036987;28;19932;-88
2021/12/04 17:41:20;;;;;;;;;;;;;;;;;;4931380;29;19930;-87
2021/12/04 17:43:48;;;;;;;;;;;;;;;;;;4941100;29;19923;-86
2021/12/04 17:46:17;;;;;;;;;;;;;;;;;;4934930;29;19923;-86
2021/12/04 17:48:42;;;;;;;;;;;;;;;;;;4920552;29;19981;-85
2021/12/04 17:51:15;;;;;;;;;;;;;;;;;;4921077;29;20376;-88
2021/12/04 17:53:40;;;;;;;;;;;;;;;;;;4931630;29;19922;-88
2021/12/04 17:56:08;;;;;;;;;;;;;;;;;;4942640;29;20550;-88
2021/12/04 17:58:36;;;;;;;;;;;;;;;;;;4937100;29;19970;-88
2021/12/04 18:01:24;;;;;;;;;;;;;;;;;;4922045;29;19930;-84
2021/12/04 18:04:05;;;;;;;;;;;;;;;;;;4935454;29;19958;-87
2021/12/04 18:06:33;;;;;;;;;;;;;;;;;;4931101;29;19930;-88
2021/12/04 18:08:59;;;;;;;;;;;;;;;;;;4940010;29;19922;-85
2021/12/04 18:11:26;;;;;;;;;;;;;;;;;;4929132;29;19927;-82
2021/12/04 18:13:53;;;;;;;;;;;;;;;;;;4937033;29;20383;-85
2021/12/04 18:16:20;;;;;;;;;;;;;;;;;;5023626;28;19917;-85
2021/12/04 18:18:46;;;;;;;;;;;;;;;;;;5023216;28;19932;-89
2021/12/04 18:21:11;;;;;;;;;;;;;;;;;;5019496;28;20346;-87
2021/12/04 18:23:36;;;;;;;;;;;;;;;;;;5021631;28;19935;-88
2021/12/04 18:26:02;;;;;;;;;;;;;;;;;;5035760;28;19976;-88
2021/12/04 18:28:27;;;;;;;;;;;;;;;;;;5035465;28;20345;-86
2021/12/04 18:30:53;;;;;;;;;;;;;;;;;;5016278;28;20358;-87
2021/12/04 18:33:19;;;;;;;;;;;;;;;;;;5036908;28;19921;-85
2021/12/04 18:35:45;;;;;;;;;;;;;;;;;;5027905;28;19921;-87
2021/12/04 18:38:10;;;;;;;;;;;;;;;;;;5035453;28;20008;-82
2021/12/04 18:40:38;;;;;;;;;;;;;;;;;;5015117;28;20290;-83
2021/12/04 18:43:04;;;;;;;;;;;;;;;;;;5016408;28;19921;-83
2021/12/04 18:45:29;;;;;;;;;;;;;;;;;;5017942;28;19921;-85
2021/12/04 18:47:58;;;;;;;;;;;;;;;;;;4998109;28;19921;-85
2021/12/04 18:50:24;;;;;;;;;;;;;;;;;;5034246;28;19917;-84
2021/12/04 18:52:50;;;;;;;;;;;;;;;;;;5034391;28;20310;-85
2021/12/04 18:55:15;;;;;;;;;;;;;;;;;;5034397;28;21332;-85
2021/12/04 18:57:40;;;;;;;;;;;;;;;;;;5018403;28;19936;-83
2021/12/04 19:00:08;;;;;;;;;;;;;;;;;;5034785;28;19976;-84
2021/12/04 19:02:35;;;;;;;;;;;;;;;;;;5034740;28;20478;-87
2021/12/04 19:05:00;;;;;;;;;;;;;;;;;;5034750;28;19944;-84
2021/12/04 19:07:31;;;;;;;;;;;;;;;;;;5039651;28;20338;-87
2021/12/04 19:09:56;;;;;;;;;;;;;;;;;;5037602;28;19925;-85
2021/12/04 19:12:23;;;;;;;;;;;;;;;;;;5016279;28;19931;-87
2021/12/04 19:14:48;;;;;;;;;;;;;;;;;;5034061;28;19976;-83
2021/12/04 19:17:15;;;;;;;;;;;;;;;;;;5019043;28;19921;-85
2021/12/04 19:19:41;;;;;;;;;;;;;;;;;;5024668;28;19931;-89
2021/12/04 19:22:10;;;;;;;;;;;;;;;;;;5038180;28;19925;-87
2021/12/04 19:24:37;;;;;;;;;;;;;;;;;;5018440;28;19921;-86
2021/12/04 19:27:04;;;;;;;;;;;;;;;;;;5036995;28;19921;-86
2021/12/04 19:29:30;;;;;;;;;;;;;;;;;;5003700;28;19932;-86
2021/12/04 19:32:29;;;;;;;;;;;;;;;;;;5037097;28;19932;-88
2021/12/04 19:50:57;;;;;;;;;;;;;;;;;;5035427;28;19961;-90
2021/12/04 19:53:37;;;;;;;;;;;;;;;;;;5021612;28;19921;-93
2021/12/04 19:56:11;;;;;;;;;;;;;;;;;;5034811;28;20012;-89
2021/12/04 19:58:41;;;;;;;;;;;;;;;;;;5030671;28;19950;-89
2021/12/04 20:01:13;;;;;;;;;;;;;;;;;;5033655;28;20020;-90
2021/12/04 20:06:36;;;;;;;;;;;;;;;;;;5033220;28;20032;-91
2021/12/04 20:14:18;;;;;;;;;;;;;;;;;;5038615;28;19952;-89
2021/12/04 20:16:43;;;;;;;;;;;;;;;;;;5038160;28;19921;-90
2021/12/04 20:19:10;;;;;;;;;;;;;;;;;;5037568;28;20341;-88
2021/12/04 20:21:46;;;;;;;;;;;;;;;;;;4999979;28;19922;-89
2021/12/04 20:24:11;;;;;;;;;;;;;;;;;;5011085;28;19921;-88
2021/12/04 20:26:45;;;;;;;;;;;;;;;;;;5037062;28;20390;-88
2021/12/04 20:29:40;;;;;;;;;;;;;;;;;;5035375;28;19927;-90
2021/12/04 21:49:47;;;;;;;;;;;;;;;;;;5039227;28;19932;-89
2021/12/04 21:52:14;;;;;;;;;;;;;;;;;;5038289;28;20620;-89
2021/12/04 21:54:40;;;;;;;;;;;;;;;;;;5038977;28;19947;-88
2021/12/04 21:57:59;;;;;;;;;;;;;;;;;;5020859;28;20364;-90
2021/12/04 22:10:59;;;;;;;;;;;;;;;;;;5037452;28;20373;-87
2021/12/04 22:13:37;;;;;;;;;;;;;;;;;;5020776;28;19979;-87
2021/12/04 22:16:30;;;;;;;;;;;;;;;;;;5023943;28;19944;-88
2021/12/04 22:59:08;;;;;;;;;;;;;;;;;;5015621;28;19921;-86
2021/12/04 23:01:37;;;;;;;;;;;;;;;;;;5017156;28;19921;-88
2021/12/04 23:14:33;;;;;;;;;;;;;;;;;;5034724;28;19929;-87
2021/12/04 23:17:29;;;;;;;;;;;;;;;;;;5034078;28;19925;-88
